sensor_id;sensor_type;location;lat;lon;timestamp;P1;durP1;ratioP1;P2;durP2;ratioP2
5827;SDS011;42583;50.240;8.444;2024-01-11T00:10:27;17.03;;;5.47;;
5827;SDS011;42583;50.240;8.444;2024-01-11T00:25:28;18.67;;;5.83;;
5827;SDS011;42583;50.240;8.444;2024-01-11T00:40:28;16.60;;;6.93;;
5827;SDS011;42583;50.240;8.444;2024-01-11T00:55:29;16.23;;;6.10;;
5827;SDS011;42583;50.240;8.444;2024-01-11T01:10:29;17.03;;;5.13;;
5827;SDS011;42583;50.240;8.444;2024-01-11T01:25:30;25.60;;;7.87;;
5827;SDS011;42583;50.240;8.444;2024-01-11T01:40:32;21.67;;;7.30;;
5827;SDS011;42583;50.240;8.444;2024-01-11T01:55:33;20.67;;;7.57;;
5827;SDS011;42583;50.240;8.444;2024-01-11T02:10:33;20.83;;;7.23;;
5827;SDS011;42583;50.240;8.444;2024-01-11T02:25:35;21.63;;;7.60;;
5827;SDS011;42583;50.240;8.444;2024-01-11T02:40:37;19.43;;;6.97;;
5827;SDS011;42583;50.240;8.444;2024-01-11T02:55:38;24.67;;;8.20;;
5827;SDS011;42583;50.240;8.444;2024-01-11T03:10:39;17.50;;;5.93;;
5827;SDS011;42583;50.240;8.444;2024-01-11T03:25:39;14.77;;;5.90;;
5827;SDS011;42583;50.240;8.444;2024-01-11T03:40:41;17.23;;;6.40;;
5827;SDS011;42583;50.240;8.444;2024-01-11T03:55:41;20.47;;;7.23;;
5827;SDS011;42583;50.240;8.444;2024-01-11T04:10:42;16.67;;;5.73;;
5827;SDS011;42583;50.240;8.444;2024-01-11T04:25:42;14.97;;;5.93;;
5827;SDS011;42583;50.240;8.444;2024-01-11T04:40:43;15.30;;;5.40;;
5827;SDS011;42583;50.240;8.444;2024-01-11T04:55:43;14.37;;;5.10;;
5827;SDS011;42583;50.240;8.444;2024-01-11T05:10:44;17.37;;;4.93;;
5827;SDS011;42583;50.240;8.444;2024-01-11T05:25:44;18.97;;;5.00;;
5827;SDS011;42583;50.240;8.444;2024-01-11T05:40:45;12.00;;;4.77;;
5827;SDS011;42583;50.240;8.444;2024-01-11T05:55:46;18.80;;;6.47;;
5827;SDS011;42583;50.240;8.444;2024-01-11T06:10:47;30.70;;;8.53;;
5827;SDS011;42583;50.240;8.444;2024-01-11T06:25:47;29.14;;;10.52;;
5827;SDS011;42583;50.240;8.444;2024-01-11T06:40:48;22.13;;;8.17;;
5827;SDS011;42583;50.240;8.444;2024-01-11T06:55:48;19.83;;;6.47;;
5827;SDS011;42583;50.240;8.444;2024-01-11T07:10:49;11.40;;;4.17;;
5827;SDS011;42583;50.240;8.444;2024-01-11T07:25:50;11.90;;;4.00;;
5827;SDS011;42583;50.240;8.444;2024-01-11T07:40:50;9.07;;;3.50;;
5827;SDS011;42583;50.240;8.444;2024-01-11T07:55:51;5.83;;;2.40;;
5827;SDS011;42583;50.240;8.444;2024-01-11T08:10:52;3.40;;;1.87;;
5827;SDS011;42583;50.240;8.444;2024-01-11T08:25:52;3.10;;;1.60;;
5827;SDS011;42583;50.240;8.444;2024-01-11T08:40:53;2.65;;;1.50;;
5827;SDS011;42583;50.240;8.444;2024-01-11T08:55:53;9.70;;;2.60;;
5827;SDS011;42583;50.240;8.444;2024-01-11T09:10:54;5.32;;;2.30;;
5827;SDS011;42583;50.240;8.444;2024-01-11T09:25:54;3.38;;;1.90;;
5827;SDS011;42583;50.240;8.444;2024-01-11T09:41:05;21.80;;;8.13;;
5827;SDS011;42583;50.240;8.444;2024-01-11T09:56:08;19.00;;;7.28;;
5827;SDS011;42583;50.240;8.444;2024-01-11T10:11:10;10.75;;;4.80;;
5827;SDS011;42583;50.240;8.444;2024-01-11T10:26:11;4.38;;;2.25;;
5827;SDS011;42583;50.240;8.444;2024-01-11T10:41:11;3.65;;;1.75;;
5827;SDS011;42583;50.240;8.444;2024-01-11T10:56:17;12.68;;;6.13;;
5827;SDS011;42583;50.240;8.444;2024-01-11T11:11:19;16.95;;;7.45;;
5827;SDS011;42583;50.240;8.444;2024-01-11T11:26:21;15.13;;;8.40;;
5827;SDS011;42583;50.240;8.444;2024-01-11T11:41:22;10.77;;;6.53;;
5827;SDS011;42583;50.240;8.444;2024-01-11T11:56:23;12.45;;;6.38;;
5827;SDS011;42583;50.240;8.444;2024-01-11T12:11:23;13.57;;;7.43;;
5827;SDS011;42583;50.240;8.444;2024-01-11T12:26:25;16.95;;;7.80;;
5827;SDS011;42583;50.240;8.444;2024-01-11T12:41:26;10.60;;;5.00;;
5827;SDS011;42583;50.240;8.444;2024-01-11T12:56:26;10.55;;;4.50;;
5827;SDS011;42583;50.240;8.444;2024-01-11T13:11:27;9.85;;;4.00;;
5827;SDS011;42583;50.240;8.444;2024-01-11T13:26:28;6.50;;;3.22;;
5827;SDS011;42583;50.240;8.444;2024-01-11T13:41:29;4.38;;;2.30;;
5827;SDS011;42583;50.240;8.444;2024-01-11T13:56:29;5.60;;;2.70;;
5827;SDS011;42583;50.240;8.444;2024-01-11T14:11:30;5.57;;;2.70;;
5827;SDS011;42583;50.240;8.444;2024-01-11T14:26:31;5.88;;;2.67;;
5827;SDS011;42583;50.240;8.444;2024-01-11T14:41:33;4.45;;;2.40;;
5827;SDS011;42583;50.240;8.444;2024-01-11T14:56:33;3.56;;;1.84;;
5827;SDS011;42583;50.240;8.444;2024-01-11T15:11:35;5.60;;;1.98;;
5827;SDS011;42583;50.240;8.444;2024-01-11T15:26:36;2.83;;;1.80;;
5827;SDS011;42583;50.240;8.444;2024-01-11T15:41:36;2.88;;;1.50;;
5827;SDS011;42583;50.240;8.444;2024-01-11T15:56:37;3.03;;;1.48;;
5827;SDS011;42583;50.240;8.444;2024-01-11T16:11:37;3.63;;;1.80;;
5827;SDS011;42583;50.240;8.444;2024-01-11T16:26:38;5.15;;;2.22;;
5827;SDS011;42583;50.240;8.444;2024-01-11T16:41:39;7.20;;;2.15;;
5827;SDS011;42583;50.240;8.444;2024-01-11T16:56:40;4.50;;;1.92;;
5827;SDS011;42583;50.240;8.444;2024-01-11T17:11:41;5.55;;;2.47;;
5827;SDS011;42583;50.240;8.444;2024-01-11T17:26:42;6.60;;;2.22;;
5827;SDS011;42583;50.240;8.444;2024-01-11T17:41:42;5.45;;;2.42;;
5827;SDS011;42583;50.240;8.444;2024-01-11T17:56:43;5.60;;;2.25;;
5827;SDS011;42583;50.240;8.444;2024-01-11T18:11:44;5.28;;;2.67;;
5827;SDS011;42583;50.240;8.444;2024-01-11T18:26:44;5.40;;;3.00;;
5827;SDS011;42583;50.240;8.444;2024-01-11T18:41:45;6.57;;;3.03;;
5827;SDS011;42583;50.240;8.444;2024-01-11T18:56:45;7.20;;;3.38;;
5827;SDS011;42583;50.240;8.444;2024-01-11T19:11:46;13.43;;;4.35;;
5827;SDS011;42583;50.240;8.444;2024-01-11T19:26:50;10.13;;;5.05;;
5827;SDS011;42583;50.240;8.444;2024-01-11T19:41:51;19.33;;;6.72;;
5827;SDS011;42583;50.240;8.444;2024-01-11T19:56:51;15.02;;;5.47;;
5827;SDS011;42583;50.240;8.444;2024-01-11T20:11:52;13.63;;;5.45;;
5827;SDS011;42583;50.240;8.444;2024-01-11T20:26:52;15.63;;;5.77;;
5827;SDS011;42583;50.240;8.444;2024-01-11T20:41:53;14.43;;;5.43;;
5827;SDS011;42583;50.240;8.444;2024-01-11T20:56:57;13.97;;;4.97;;
5827;SDS011;42583;50.240;8.444;2024-01-11T21:11:57;24.33;;;6.50;;
5827;SDS011;42583;50.240;8.444;2024-01-11T21:26:59;21.13;;;6.23;;
5827;SDS011;42583;50.240;8.444;2024-01-11T21:42:00;11.47;;;4.73;;
5827;SDS011;42583;50.240;8.444;2024-01-11T21:57:01;11.57;;;4.00;;
5827;SDS011;42583;50.240;8.444;2024-01-11T22:12:02;9.02;;;4.38;;
5827;SDS011;42583;50.240;8.444;2024-01-11T22:27:04;8.47;;;4.00;;
5827;SDS011;42583;50.240;8.444;2024-01-11T22:42:04;11.77;;;4.70;;
5827;SDS011;42583;50.240;8.444;2024-01-11T22:57:05;24.60;;;4.43;;
5827;SDS011;42583;50.240;8.444;2024-01-11T23:12:06;10.67;;;3.30;;
5827;SDS011;42583;50.240;8.444;2024-01-11T23:27:07;113.30;;;4.83;;
5827;SDS011;42583;50.240;8.444;2024-01-11T23:42:09;2.60;;;1.67;;
5827;SDS011;42583;50.240;8.444;2024-01-11T23:57:12;5.17;;;1.57;;
